sensor_id;sensor_type;location;lat;lon;timestamp;pressure;altitude;pressure_sealevel;temperature;humidity
12664;BME280;6396;58.490;15.528;2023-04-09T00:02:13;102356.13;;;3.60;100.00
12664;BME280;6396;58.490;15.528;2023-04-09T00:04:41;101996.63;;;0.98;100.00
12664;BME280;6396;58.490;15.528;2023-04-09T00:07:07;102172.09;;;2.59;100.00
12664;BME280;6396;58.490;15.528;2023-04-09T00:09:34;101735.31;;;0.05;100.00
12664;BME280;6396;58.490;15.528;2023-04-09T00:12:02;102201.56;;;2.58;100.00
12664;BME280;6396;58.490;15.528;2023-04-09T00:14:29;101656.25;;;-0.79;100.00
12664;BME280;6396;58.490;15.528;2023-04-09T00:16:56;102110.13;;;1.70;100.00
12664;BME280;6396;58.490;15.528;2023-04-09T00:19:23;101847.97;;;0.33;100.00
12664;BME280;6396;58.490;15.528;2023-04-09T00:21:50;102197.75;;;2.20;100.00
12664;BME280;6396;58.490;15.528;2023-04-09T00:24:17;102060.59;;;1.69;100.00
12664;BME280;6396;58.490;15.528;2023-04-09T00:26:44;101889.34;;;0.52;100.00
12664;BME280;6396;58.490;15.528;2023-04-09T00:29:12;101771.03;;;-0.83;100.00
12664;BME280;6396;58.490;15.528;2023-04-09T00:31:39;102181.66;;;2.33;100.00
12664;BME280;6396;58.490;15.528;2023-04-09T00:34:06;102261.50;;;2.83;100.00
12664;BME280;6396;58.490;15.528;2023-04-09T00:36:33;102269.03;;;2.74;100.00
12664;BME280;6396;58.490;15.528;2023-04-09T00:39:00;102317.81;;;2.76;100.00
12664;BME280;6396;58.490;15.528;2023-04-09T00:41:26;101896.91;;;-0.25;100.00
12664;BME280;6396;58.490;15.528;2023-04-09T00:43:56;102195.25;;;2.23;100.00
12664;BME280;6396;58.490;15.528;2023-04-09T00:46:24;102352.50;;;3.27;100.00
12664;BME280;6396;58.490;15.528;2023-04-09T00:48:51;102205.63;;;2.21;100.00
12664;BME280;6396;58.490;15.528;2023-04-09T00:51:18;102348.56;;;3.13;100.00
12664;BME280;6396;58.490;15.528;2023-04-09T00:53:45;102357.09;;;3.07;100.00
12664;BME280;6396;58.490;15.528;2023-04-09T00:56:14;102127.06;;;1.59;100.00
12664;BME280;6396;58.490;15.528;2023-04-09T00:58:42;102313.53;;;2.53;100.00
12664;BME280;6396;58.490;15.528;2023-04-09T01:01:09;102312.75;;;2.56;100.00
12664;BME280;6396;58.490;15.528;2023-04-09T01:03:38;102265.09;;;2.35;100.00
12664;BME280;6396;58.490;15.528;2023-04-09T01:06:10;102036.63;;;1.02;100.00
12664;BME280;6396;58.490;15.528;2023-04-09T01:08:46;102347.66;;;2.86;100.00
12664;BME280;6396;58.490;15.528;2023-04-09T01:11:21;102254.94;;;2.17;100.00
12664;BME280;6396;58.490;15.528;2023-04-09T01:13:54;102334.78;;;2.90;100.00
12664;BME280;6396;58.490;15.528;2023-04-09T01:16:24;102205.69;;;1.73;100.00
12664;BME280;6396;58.490;15.528;2023-04-09T01:18:56;101960.00;;;0.20;100.00
12664;BME280;6396;58.490;15.528;2023-04-09T01:21:29;102089.84;;;0.88;100.00
12664;BME280;6396;58.490;15.528;2023-04-09T01:24:05;101730.34;;;-1.07;100.00
12664;BME280;6396;58.490;15.528;2023-04-09T01:26:44;102259.50;;;1.97;100.00
12664;BME280;6396;58.490;15.528;2023-04-09T01:29:22;102212.63;;;1.97;100.00
12664;BME280;6396;58.490;15.528;2023-04-09T01:31:50;102151.25;;;1.55;100.00
12664;BME280;6396;58.490;15.528;2023-04-09T01:34:19;102262.53;;;2.09;100.00
12664;BME280;6396;58.490;15.528;2023-04-09T01:36:50;102290.81;;;2.49;100.00
12664;BME280;6396;58.490;15.528;2023-04-09T01:39:17;102225.84;;;1.55;100.00
12664;BME280;6396;58.490;15.528;2023-04-09T01:41:45;102352.63;;;2.78;100.00
12664;BME280;6396;58.490;15.528;2023-04-09T01:44:12;102352.03;;;2.60;100.00
12664;BME280;6396;58.490;15.528;2023-04-09T01:46:41;102085.09;;;1.24;100.00
12664;BME280;6396;58.490;15.528;2023-04-09T01:49:08;102405.84;;;2.83;100.00
12664;BME280;6396;58.490;15.528;2023-04-09T01:51:36;102336.06;;;2.76;100.00
12664;BME280;6396;58.490;15.528;2023-04-09T01:54:03;102297.31;;;2.37;100.00
12664;BME280;6396;58.490;15.528;2023-04-09T01:56:39;102240.50;;;2.01;100.00
12664;BME280;6396;58.490;15.528;2023-04-09T01:59:06;102277.34;;;2.12;100.00
12664;BME280;6396;58.490;15.528;2023-04-09T02:01:37;102373.13;;;2.68;100.00
12664;BME280;6396;58.490;15.528;2023-04-09T02:04:13;102363.03;;;2.78;100.00
12664;BME280;6396;58.490;15.528;2023-04-09T02:06:46;102186.03;;;1.57;100.00
12664;BME280;6396;58.490;15.528;2023-04-09T02:09:15;102247.66;;;2.32;100.00
12664;BME280;6396;58.490;15.528;2023-04-09T02:11:45;102375.06;;;2.73;100.00
12664;BME280;6396;58.490;15.528;2023-04-09T02:14:14;102329.84;;;2.73;100.00
12664;BME280;6396;58.490;15.528;2023-04-09T02:16:41;102339.03;;;2.62;100.00
12664;BME280;6396;58.490;15.528;2023-04-09T02:19:10;102354.88;;;2.68;100.00
12664;BME280;6396;58.490;15.528;2023-04-09T02:21:37;102272.91;;;1.84;100.00
12664;BME280;6396;58.490;15.528;2023-04-09T02:24:04;102338.31;;;2.41;100.00
12664;BME280;6396;58.490;15.528;2023-04-09T02:26:30;102263.34;;;1.83;100.00
12664;BME280;6396;58.490;15.528;2023-04-09T02:28:57;102379.66;;;2.32;100.00
12664;BME280;6396;58.490;15.528;2023-04-09T02:31:24;102371.84;;;2.32;100.00
12664;BME280;6396;58.490;15.528;2023-04-09T02:33:51;102204.25;;;1.57;100.00
12664;BME280;6396;58.490;15.528;2023-04-09T02:36:19;102180.25;;;1.42;100.00
12664;BME280;6396;58.490;15.528;2023-04-09T02:38:46;102045.81;;;0.69;100.00
12664;BME280;6396;58.490;15.528;2023-04-09T02:41:13;102283.81;;;1.51;100.00
12664;BME280;6396;58.490;15.528;2023-04-09T02:43:40;102239.06;;;1.84;100.00
12664;BME280;6396;58.490;15.528;2023-04-09T02:46:06;102080.88;;;0.80;100.00
12664;BME280;6396;58.490;15.528;2023-04-09T02:48:33;101957.25;;;0.16;100.00
12664;BME280;6396;58.490;15.528;2023-04-09T02:51:00;102025.25;;;0.51;100.00
12664;BME280;6396;58.490;15.528;2023-04-09T02:53:28;102360.56;;;2.56;100.00
12664;BME280;6396;58.490;15.528;2023-04-09T02:55:55;102165.63;;;1.69;100.00
12664;BME280;6396;58.490;15.528;2023-04-09T02:58:22;102209.13;;;1.73;100.00
12664;BME280;6396;58.490;15.528;2023-04-09T03:00:49;102337.31;;;2.62;100.00
12664;BME280;6396;58.490;15.528;2023-04-09T03:03:15;102261.47;;;2.29;100.00
12664;BME280;6396;58.490;15.528;2023-04-09T03:05:42;102306.00;;;2.36;100.00
12664;BME280;6396;58.490;15.528;2023-04-09T03:08:09;101759.91;;;-0.57;100.00
12664;BME280;6396;58.490;15.528;2023-04-09T03:10:37;102313.31;;;2.72;100.00
12664;BME280;6396;58.490;15.528;2023-04-09T03:13:04;102167.94;;;1.85;100.00
12664;BME280;6396;58.490;15.528;2023-04-09T03:15:31;102168.75;;;1.84;100.00
12664;BME280;6396;58.490;15.528;2023-04-09T03:17:58;102149.88;;;1.66;100.00
12664;BME280;6396;58.490;15.528;2023-04-09T03:20:24;102263.09;;;2.01;100.00
12664;BME280;6396;58.490;15.528;2023-04-09T03:22:51;102201.75;;;1.60;100.00
12664;BME280;6396;58.490;15.528;2023-04-09T03:25:18;102342.03;;;2.49;100.00
12664;BME280;6396;58.490;15.528;2023-04-09T03:27:46;102223.97;;;1.99;100.00
12664;BME280;6396;58.490;15.528;2023-04-09T03:30:13;102333.13;;;2.42;100.00
12664;BME280;6396;58.490;15.528;2023-04-09T03:32:40;102311.50;;;2.19;100.00
12664;BME280;6396;58.490;15.528;2023-04-09T03:35:07;102295.72;;;2.15;100.00
12664;BME280;6396;58.490;15.528;2023-04-09T03:37:34;102357.44;;;2.41;100.00
12664;BME280;6396;58.490;15.528;2023-04-09T03:40:01;102009.00;;;0.33;100.00
12664;BME280;6396;58.490;15.528;2023-04-09T03:42:28;102225.47;;;1.93;100.00
12664;BME280;6396;58.490;15.528;2023-04-09T03:44:56;102368.81;;;2.43;100.00
12664;BME280;6396;58.490;15.528;2023-04-09T03:47:23;102311.91;;;2.32;100.00
12664;BME280;6396;58.490;15.528;2023-04-09T03:49:50;101951.22;;;0.17;100.00
12664;BME280;6396;58.490;15.528;2023-04-09T03:52:16;102323.34;;;2.35;100.00
12664;BME280;6396;58.490;15.528;2023-04-09T03:54:43;101804.75;;;-0.59;100.00
12664;BME280;6396;58.490;15.528;2023-04-09T03:57:10;102075.50;;;0.75;100.00
12664;BME280;6396;58.490;15.528;2023-04-09T03:59:37;102340.31;;;2.24;100.00
12664;BME280;6396;58.490;15.528;2023-04-09T04:02:05;101957.50;;;0.23;100.00
12664;BME280;6396;58.490;15.528;2023-04-09T04:04:32;102321.16;;;2.22;100.00
12664;BME280;6396;58.490;15.528;2023-04-09T04:06:58;102319.59;;;2.27;100.00
12664;BME280;6396;58.490;15.528;2023-04-09T04:09:25;102021.91;;;0.79;100.00
12664;BME280;6396;58.490;15.528;2023-04-09T04:11:52;102334.09;;;2.44;100.00
12664;BME280;6396;58.490;15.528;2023-04-09T04:14:19;102353.84;;;2.38;100.00
12664;BME280;6396;58.490;15.528;2023-04-09T04:16:46;101870.88;;;-0.26;100.00
12664;BME280;6396;58.490;15.528;2023-04-09T04:19:14;102161.25;;;1.43;100.00
12664;BME280;6396;58.490;15.528;2023-04-09T04:21:41;102315.31;;;2.29;100.00
12664;BME280;6396;58.490;15.528;2023-04-09T04:24:08;102352.41;;;2.22;100.00
12664;BME280;6396;58.490;15.528;2023-04-09T04:26:35;102314.78;;;2.14;100.00
12664;BME280;6396;58.490;15.528;2023-04-09T04:29:01;102271.75;;;1.76;100.00
12664;BME280;6396;58.490;15.528;2023-04-09T04:31:28;102070.91;;;0.68;100.00
12664;BME280;6396;58.490;15.528;2023-04-09T04:33:55;102362.50;;;2.13;100.00
12664;BME280;6396;58.490;15.528;2023-04-09T04:36:23;102351.47;;;2.20;100.00
12664;BME280;6396;58.490;15.528;2023-04-09T04:38:50;102362.28;;;2.31;100.00
12664;BME280;6396;58.490;15.528;2023-04-09T04:41:17;102255.75;;;1.91;100.00
12664;BME280;6396;58.490;15.528;2023-04-09T04:43:45;102300.13;;;1.92;100.00
12664;BME280;6396;58.490;15.528;2023-04-09T04:46:12;102278.81;;;1.80;100.00
12664;BME280;6396;58.490;15.528;2023-04-09T04:48:39;102301.16;;;1.97;100.00
12664;BME280;6396;58.490;15.528;2023-04-09T04:51:05;102338.53;;;2.23;100.00
12664;BME280;6396;58.490;15.528;2023-04-09T04:53:34;102204.09;;;1.29;100.00
12664;BME280;6396;58.490;15.528;2023-04-09T04:56:00;102344.53;;;2.20;100.00
12664;BME280;6396;58.490;15.528;2023-04-09T04:58:27;102289.25;;;1.80;100.00
12664;BME280;6396;58.490;15.528;2023-04-09T05:00:55;102238.34;;;1.88;100.00
12664;BME280;6396;58.490;15.528;2023-04-09T05:03:21;102358.75;;;2.54;100.00
12664;BME280;6396;58.490;15.528;2023-04-09T05:05:48;101820.53;;;-0.31;100.00
12664;BME280;6396;58.490;15.528;2023-04-09T05:08:15;102358.19;;;2.62;100.00
12664;BME280;6396;58.490;15.528;2023-04-09T05:10:43;102264.66;;;2.21;100.00
12664;BME280;6396;58.490;15.528;2023-04-09T05:13:11;102289.19;;;2.53;100.00
12664;BME280;6396;58.490;15.528;2023-04-09T05:15:39;102257.06;;;2.27;100.00
12664;BME280;6396;58.490;15.528;2023-04-09T05:18:06;102370.31;;;2.87;100.00
12664;BME280;6396;58.490;15.528;2023-04-09T05:20:33;102245.56;;;2.47;100.00
12664;BME280;6396;58.490;15.528;2023-04-09T05:23:00;102234.66;;;2.59;100.00
12664;BME280;6396;58.490;15.528;2023-04-09T05:25:27;102207.25;;;2.45;100.00
12664;BME280;6396;58.490;15.528;2023-04-09T05:27:55;102206.06;;;2.35;100.00
12664;BME280;6396;58.490;15.528;2023-04-09T05:30:22;102042.63;;;0.99;100.00
12664;BME280;6396;58.490;15.528;2023-04-09T05:32:49;102366.63;;;3.07;100.00
12664;BME280;6396;58.490;15.528;2023-04-09T05:35:16;102414.44;;;3.06;100.00
12664;BME280;6396;58.490;15.528;2023-04-09T05:37:43;102339.59;;;3.05;100.00
12664;BME280;6396;58.490;15.528;2023-04-09T05:40:11;102468.06;;;3.48;100.00
12664;BME280;6396;58.490;15.528;2023-04-09T05:42:39;101951.97;;;1.10;100.00
12664;BME280;6396;58.490;15.528;2023-04-09T05:45:08;101885.72;;;0.74;100.00
12664;BME280;6396;58.490;15.528;2023-04-09T05:47:35;101915.75;;;1.16;100.00
12664;BME280;6396;58.490;15.528;2023-04-09T05:50:04;102017.09;;;1.91;100.00
12664;BME280;6396;58.490;15.528;2023-04-09T05:52:31;102310.50;;;3.48;100.00
12664;BME280;6396;58.490;15.528;2023-04-09T05:54:58;102315.56;;;3.43;100.00
12664;BME280;6396;58.490;15.528;2023-04-09T05:57:25;102362.09;;;3.84;100.00
12664;BME280;6396;58.490;15.528;2023-04-09T05:59:55;102337.03;;;3.92;100.00
12664;BME280;6396;58.490;15.528;2023-04-09T06:02:23;101754.84;;;0.72;100.00
12664;BME280;6396;58.490;15.528;2023-04-09T06:04:50;101789.66;;;1.03;100.00
12664;BME280;6396;58.490;15.528;2023-04-09T06:07:17;102231.03;;;3.39;100.00
12664;BME280;6396;58.490;15.528;2023-04-09T06:09:44;102350.84;;;4.18;100.00
12664;BME280;6396;58.490;15.528;2023-04-09T06:12:11;102332.78;;;4.27;100.00
12664;BME280;6396;58.490;15.528;2023-04-09T06:14:38;102263.16;;;3.98;100.00
12664;BME280;6396;58.490;15.528;2023-04-09T06:17:04;102319.13;;;4.37;100.00
12664;BME280;6396;58.490;15.528;2023-04-09T06:19:33;102330.63;;;4.43;100.00
12664;BME280;6396;58.490;15.528;2023-04-09T06:21:59;102326.44;;;4.50;100.00
12664;BME280;6396;58.490;15.528;2023-04-09T06:24:26;102339.00;;;4.63;100.00
12664;BME280;6396;58.490;15.528;2023-04-09T06:26:53;102170.50;;;3.85;100.00
12664;BME280;6396;58.490;15.528;2023-04-09T06:29:20;102348.31;;;4.86;100.00
12664;BME280;6396;58.490;15.528;2023-04-09T06:31:47;102298.69;;;4.91;100.00
12664;BME280;6396;58.490;15.528;2023-04-09T06:34:14;102309.78;;;4.79;100.00
12664;BME280;6396;58.490;15.528;2023-04-09T06:36:42;102443.84;;;5.39;100.00
12664;BME280;6396;58.490;15.528;2023-04-09T06:39:09;101951.25;;;2.87;100.00
12664;BME280;6396;58.490;15.528;2023-04-09T06:41:36;102327.00;;;6.26;100.00
12664;BME280;6396;58.490;15.528;2023-04-09T06:44:02;102305.50;;;6.46;100.00
12664;BME280;6396;58.490;15.528;2023-04-09T06:46:29;102390.88;;;7.26;100.00
12664;BME280;6396;58.490;15.528;2023-04-09T06:48:56;102343.00;;;8.13;100.00
12664;BME280;6396;58.490;15.528;2023-04-09T06:51:23;102025.44;;;6.99;100.00
12664;BME280;6396;58.490;15.528;2023-04-09T06:53:52;102124.41;;;9.06;100.00
12664;BME280;6396;58.490;15.528;2023-04-09T06:56:19;102066.56;;;9.75;100.00
12664;BME280;6396;58.490;15.528;2023-04-09T06:58:46;102332.16;;;12.17;100.00
12664;BME280;6396;58.490;15.528;2023-04-09T07:01:13;102124.59;;;12.28;100.00
12664;BME280;6396;58.490;15.528;2023-04-09T07:03:41;102047.38;;;12.63;89.47
12664;BME280;6396;58.490;15.528;2023-04-09T07:06:08;102363.19;;;15.29;75.53
12664;BME280;6396;58.490;15.528;2023-04-09T07:08:35;102242.16;;;15.46;75.35
12664;BME280;6396;58.490;15.528;2023-04-09T07:11:03;102339.34;;;16.91;66.45
12664;BME280;6396;58.490;15.528;2023-04-09T07:13:30;102122.84;;;16.02;63.51
12664;BME280;6396;58.490;15.528;2023-04-09T07:15:57;101981.88;;;15.19;60.99
12664;BME280;6396;58.490;15.528;2023-04-09T07:18:24;102091.50;;;16.11;55.67
12664;BME280;6396;58.490;15.528;2023-04-09T07:20:51;102346.69;;;17.18;56.93
12664;BME280;6396;58.490;15.528;2023-04-09T07:23:18;101983.34;;;12.96;57.65
12664;BME280;6396;58.490;15.528;2023-04-09T07:25:45;102350.81;;;14.05;59.20
12664;BME280;6396;58.490;15.528;2023-04-09T07:28:14;102141.66;;;11.90;61.73
12664;BME280;6396;58.490;15.528;2023-04-09T07:30:40;102222.06;;;11.71;65.42
12664;BME280;6396;58.490;15.528;2023-04-09T07:33:07;102385.13;;;12.17;64.31
12664;BME280;6396;58.490;15.528;2023-04-09T07:35:34;102074.50;;;10.14;65.77
12664;BME280;6396;58.490;15.528;2023-04-09T07:38:01;102223.22;;;10.64;70.60
12664;BME280;6396;58.490;15.528;2023-04-09T07:40:28;102207.34;;;10.24;72.58
12664;BME280;6396;58.490;15.528;2023-04-09T07:42:55;102302.47;;;10.60;76.93
12664;BME280;6396;58.490;15.528;2023-04-09T07:45:23;102441.72;;;11.13;77.66
12664;BME280;6396;58.490;15.528;2023-04-09T07:47:50;102093.66;;;9.06;77.71
12664;BME280;6396;58.490;15.528;2023-04-09T07:50:17;102243.34;;;9.90;82.56
12664;BME280;6396;58.490;15.528;2023-04-09T07:52:45;102366.75;;;10.51;84.77
12664;BME280;6396;58.490;15.528;2023-04-09T07:55:12;102372.66;;;9.94;88.10
12664;BME280;6396;58.490;15.528;2023-04-09T07:57:41;101784.19;;;6.36;89.17
12664;BME280;6396;58.490;15.528;2023-04-09T08:00:10;101856.50;;;6.99;88.98
12664;BME280;6396;58.490;15.528;2023-04-09T08:02:39;101764.34;;;6.67;87.50
12664;BME280;6396;58.490;15.528;2023-04-09T08:05:06;102363.16;;;10.34;87.94
12664;BME280;6396;58.490;15.528;2023-04-09T08:07:33;102406.38;;;10.68;87.10
12664;BME280;6396;58.490;15.528;2023-04-09T08:10:01;101888.94;;;9.88;79.14
12664;BME280;6396;58.490;15.528;2023-04-09T08:12:28;102138.94;;;12.03;73.63
12664;BME280;6396;58.490;15.528;2023-04-09T08:14:55;101800.78;;;11.37;67.18
12664;BME280;6396;58.490;15.528;2023-04-09T08:17:21;101801.47;;;11.56;62.43
12664;BME280;6396;58.490;15.528;2023-04-09T08:19:50;102276.56;;;15.10;59.30
12664;BME280;6396;58.490;15.528;2023-04-09T08:22:17;102149.38;;;14.83;58.23
12664;BME280;6396;58.490;15.528;2023-04-09T08:24:49;102105.69;;;14.94;52.13
12664;BME280;6396;58.490;15.528;2023-04-09T08:27:16;102129.63;;;15.80;49.77
12664;BME280;6396;58.490;15.528;2023-04-09T08:29:43;102345.50;;;17.63;50.53
12664;BME280;6396;58.490;15.528;2023-04-09T08:32:10;102110.19;;;16.79;48.83
12664;BME280;6396;58.490;15.528;2023-04-09T08:34:37;101988.28;;;16.18;48.53
12664;BME280;6396;58.490;15.528;2023-04-09T08:37:05;102318.56;;;16.68;44.16
12664;BME280;6396;58.490;15.528;2023-04-09T08:39:32;101978.56;;;14.27;48.20
12664;BME280;6396;58.490;15.528;2023-04-09T08:42:00;101933.44;;;13.25;45.47
12664;BME280;6396;58.490;15.528;2023-04-09T08:44:30;101930.31;;;12.96;47.89
12664;BME280;6396;58.490;15.528;2023-04-09T08:46:58;101859.66;;;12.34;46.97
12664;BME280;6396;58.490;15.528;2023-04-09T08:49:25;101955.94;;;12.97;47.25
12664;BME280;6396;58.490;15.528;2023-04-09T08:51:52;101985.03;;;14.11;44.61
12664;BME280;6396;58.490;15.528;2023-04-09T08:54:20;101664.25;;;13.44;43.54
12664;BME280;6396;58.490;15.528;2023-04-09T08:56:50;102265.03;;;16.76;43.93
12664;BME280;6396;58.490;15.528;2023-04-09T08:59:17;101915.56;;;15.81;41.11
12664;BME280;6396;58.490;15.528;2023-04-09T09:01:44;102341.38;;;18.71;42.76
12664;BME280;6396;58.490;15.528;2023-04-09T09:04:13;102345.72;;;18.75;44.42
12664;BME280;6396;58.490;15.528;2023-04-09T09:06:40;102124.22;;;17.46;44.37
12664;BME280;6396;58.490;15.528;2023-04-09T09:09:21;102161.69;;;17.13;37.85
12664;BME280;6396;58.490;15.528;2023-04-09T09:11:49;102413.44;;;17.54;44.71
12664;BME280;6396;58.490;15.528;2023-04-09T09:14:17;102261.06;;;16.55;45.39
12664;BME280;6396;58.490;15.528;2023-04-09T09:17:02;102354.44;;;16.14;44.29
12664;BME280;6396;58.490;15.528;2023-04-09T09:19:31;102233.91;;;14.66;47.06
12664;BME280;6396;58.490;15.528;2023-04-09T09:22:01;102347.09;;;15.35;47.81
12664;BME280;6396;58.490;15.528;2023-04-09T09:24:30;102051.06;;;13.81;47.71
12664;BME280;6396;58.490;15.528;2023-04-09T09:26:58;101924.13;;;13.54;47.82
12664;BME280;6396;58.490;15.528;2023-04-09T09:29:28;101869.44;;;13.43;46.78
12664;BME280;6396;58.490;15.528;2023-04-09T09:31:56;102412.50;;;16.82;47.11
12664;BME280;6396;58.490;15.528;2023-04-09T09:34:26;102365.66;;;17.07;45.41
12664;BME280;6396;58.490;15.528;2023-04-09T09:36:53;102089.50;;;15.86;44.36
12664;BME280;6396;58.490;15.528;2023-04-09T09:39:20;102282.72;;;17.45;44.77
12664;BME280;6396;58.490;15.528;2023-04-09T09:42:05;102334.22;;;18.13;42.20
12664;BME280;6396;58.490;15.528;2023-04-09T09:44:34;102101.06;;;17.18;44.53
12664;BME280;6396;58.490;15.528;2023-04-09T09:47:02;102106.41;;;17.18;43.35
12664;BME280;6396;58.490;15.528;2023-04-09T09:49:30;102395.44;;;18.24;42.29
12664;BME280;6396;58.490;15.528;2023-04-09T09:51:58;101674.28;;;14.45;42.09
12664;BME280;6396;58.490;15.528;2023-04-09T09:54:32;102186.81;;;17.67;41.82
12664;BME280;6396;58.490;15.528;2023-04-09T09:57:07;101905.84;;;15.80;42.25
12664;BME280;6396;58.490;15.528;2023-04-09T09:59:40;102312.03;;;17.80;41.98
12664;BME280;6396;58.490;15.528;2023-04-09T10:02:13;102119.78;;;16.86;39.99
12664;BME280;6396;58.490;15.528;2023-04-09T10:04:43;102360.59;;;17.96;42.36
12664;BME280;6396;58.490;15.528;2023-04-09T10:07:12;102350.66;;;17.69;42.90
12664;BME280;6396;58.490;15.528;2023-04-09T10:09:41;102089.81;;;16.09;43.54
12664;BME280;6396;58.490;15.528;2023-04-09T10:12:12;102321.69;;;17.54;42.86
12664;BME280;6396;58.490;15.528;2023-04-09T10:14:40;102086.59;;;16.30;45.01
12664;BME280;6396;58.490;15.528;2023-04-09T10:17:08;102260.13;;;17.26;42.94
12664;BME280;6396;58.490;15.528;2023-04-09T10:19:38;102368.06;;;17.51;41.49
12664;BME280;6396;58.490;15.528;2023-04-09T10:22:09;102254.13;;;16.83;42.26
12664;BME280;6396;58.490;15.528;2023-04-09T10:24:39;102090.72;;;15.71;43.00
12664;BME280;6396;58.490;15.528;2023-04-09T10:27:09;102175.06;;;16.45;40.66
12664;BME280;6396;58.490;15.528;2023-04-09T10:29:43;102360.44;;;16.64;40.07
12664;BME280;6396;58.490;15.528;2023-04-09T10:32:10;102313.06;;;16.36;43.48
12664;BME280;6396;58.490;15.528;2023-04-09T10:34:41;101670.19;;;13.13;43.73
12664;BME280;6396;58.490;15.528;2023-04-09T10:37:13;102414.19;;;17.59;42.64
12664;BME280;6396;58.490;15.528;2023-04-09T10:39:44;102302.59;;;17.98;45.39
12664;BME280;6396;58.490;15.528;2023-04-09T10:42:13;102261.09;;;17.85;45.77
12664;BME280;6396;58.490;15.528;2023-04-09T10:44:42;102188.56;;;17.39;45.54
12664;BME280;6396;58.490;15.528;2023-04-09T10:47:10;102312.03;;;18.39;45.83
12664;BME280;6396;58.490;15.528;2023-04-09T10:49:38;102119.78;;;17.45;43.62
12664;BME280;6396;58.490;15.528;2023-04-09T10:52:06;102328.28;;;18.33;45.09
12664;BME280;6396;58.490;15.528;2023-04-09T10:54:39;102187.91;;;17.60;41.82
12664;BME280;6396;58.490;15.528;2023-04-09T10:57:15;102264.97;;;18.04;44.70
12664;BME280;6396;58.490;15.528;2023-04-09T10:59:45;102320.69;;;18.19;45.07
12664;BME280;6396;58.490;15.528;2023-04-09T11:05:31;102187.13;;;16.94;40.33
12664;BME280;6396;58.490;15.528;2023-04-09T11:08:06;102336.47;;;17.33;41.96
12664;BME280;6396;58.490;15.528;2023-04-09T11:10:34;102029.84;;;15.91;41.83
12664;BME280;6396;58.490;15.528;2023-04-09T11:13:01;102052.16;;;16.21;44.89
12664;BME280;6396;58.490;15.528;2023-04-09T11:15:30;102082.34;;;16.56;41.43
12664;BME280;6396;58.490;15.528;2023-04-09T11:17:57;101756.66;;;14.83;44.31
12664;BME280;6396;58.490;15.528;2023-04-09T11:20:28;101506.63;;;12.28;39.75
12664;BME280;6396;58.490;15.528;2023-04-09T11:22:56;101871.91;;;14.44;40.70
12664;BME280;6396;58.490;15.528;2023-04-09T11:25:32;101513.97;;;12.14;43.13
12664;BME280;6396;58.490;15.528;2023-04-09T11:28:07;102114.97;;;15.59;42.55
12664;BME280;6396;58.490;15.528;2023-04-09T11:30:37;102317.53;;;16.73;39.65
12664;BME280;6396;58.490;15.528;2023-04-09T11:33:06;102260.13;;;16.93;41.39
12664;BME280;6396;58.490;15.528;2023-04-09T11:35:35;101964.22;;;15.53;42.45
12664;BME280;6396;58.490;15.528;2023-04-09T11:38:05;101680.41;;;13.74;44.82
12664;BME280;6396;58.490;15.528;2023-04-09T11:40:32;101991.44;;;16.00;45.75
12664;BME280;6396;58.490;15.528;2023-04-09T11:43:02;101491.06;;;12.56;41.80
12664;BME280;6396;58.490;15.528;2023-04-09T11:45:31;101526.06;;;13.15;44.02
12664;BME280;6396;58.490;15.528;2023-04-09T11:48:12;101513.81;;;12.66;44.47
12664;BME280;6396;58.490;15.528;2023-04-09T11:50:48;101784.88;;;14.53;42.36
12664;BME280;6396;58.490;15.528;2023-04-09T11:53:17;101577.63;;;12.55;44.58
12664;BME280;6396;58.490;15.528;2023-04-09T11:55:47;101541.22;;;12.66;46.69
12664;BME280;6396;58.490;15.528;2023-04-09T11:58:15;101492.50;;;13.13;47.01
12664;BME280;6396;58.490;15.528;2023-04-09T12:00:43;101504.59;;;13.26;44.76
12664;BME280;6396;58.490;15.528;2023-04-09T12:03:12;101960.72;;;15.15;44.45
12664;BME280;6396;58.490;15.528;2023-04-09T12:05:44;101828.56;;;14.40;43.22
12664;BME280;6396;58.490;15.528;2023-04-09T12:08:13;101992.84;;;15.06;45.09
12664;BME280;6396;58.490;15.528;2023-04-09T12:10:41;101621.75;;;13.05;42.27
12664;BME280;6396;58.490;15.528;2023-04-09T12:13:09;102114.38;;;15.46;44.83
12664;BME280;6396;58.490;15.528;2023-04-09T12:15:37;102003.09;;;15.22;48.01
12664;BME280;6396;58.490;15.528;2023-04-09T12:18:07;101806.03;;;13.76;44.09
12664;BME280;6396;58.490;15.528;2023-04-09T12:20:37;102129.31;;;15.11;43.18
12664;BME280;6396;58.490;15.528;2023-04-09T12:23:06;101705.19;;;12.83;46.23
12664;BME280;6396;58.490;15.528;2023-04-09T12:25:34;101980.03;;;14.42;47.07
12664;BME280;6396;58.490;15.528;2023-04-09T12:28:02;101423.75;;;11.24;44.92
12664;BME280;6396;58.490;15.528;2023-04-09T12:30:29;101938.47;;;13.92;46.56
12664;BME280;6396;58.490;15.528;2023-04-09T12:33:01;102261.63;;;15.93;42.93
12664;BME280;6396;58.490;15.528;2023-04-09T12:35:29;101474.59;;;10.80;45.89
12664;BME280;6396;58.490;15.528;2023-04-09T12:38:19;101465.03;;;10.72;46.48
12664;BME280;6396;58.490;15.528;2023-04-09T12:40:52;101867.88;;;12.76;48.73
12664;BME280;6396;58.490;15.528;2023-04-09T12:43:25;102282.06;;;15.49;49.08
12664;BME280;6396;58.490;15.528;2023-04-09T12:46:01;101587.63;;;11.25;50.33
12664;BME280;6396;58.490;15.528;2023-04-09T12:51:41;101461.06;;;10.38;45.94
12664;BME280;6396;58.490;15.528;2023-04-09T12:54:30;101519.44;;;10.85;43.86
12664;BME280;6396;58.490;15.528;2023-04-09T12:56:59;101869.34;;;12.95;47.16
12664;BME280;6396;58.490;15.528;2023-04-09T12:59:26;101818.53;;;13.23;49.32
12664;BME280;6396;58.490;15.528;2023-04-09T13:01:53;102328.59;;;15.76;51.00
12664;BME280;6396;58.490;15.528;2023-04-09T13:04:20;102037.28;;;14.58;50.43